Hersey, MI (49639)

5:38 AM EDT on April 23, 2018 (GMT -0400)
Hersey Township | | Change Station
Active Advisory: Flood Advisory Active Notice: Flood Advisory

Elev 1004 ft 43.82 °N, 85.41 °W | Updated 2 minutes ago

Clear
Clear
27.9 °F
Feels Like 28 °F
N
0.0
Wind Variable Wind from SE
Gusts 0.0 mph

Today
High -- | Low -- °F
--% Chance of Precip.
Yesterday
High -- | Low -- °F
Precip. -- in
Pressure 30.30 in
Visibility 10.0 miles
Clouds Clear
Windchill 28 °F
Dew Point 25 °F
Humidity 89%
Rainfall 0.00 in
Snow Depth Not available.
6:45 AM 8:35 PM
First Quarter, 56% visible
METAR KRQB 230915Z AUTO 00000KT 10SM CLR 00/M04 A3030 RMK AO2 T00021037
Pressure 30.30 in
Visibility 10.0 miles
Clouds Clear
Windchill 28 °F
Dew Point 25 °F
Humidity 89%
Rainfall 0.00 in
Snow Depth Not available.
6:45 AM 8:35 PM
First Quarter, 56% visible
METAR KRQB 230915Z AUTO 00000KT 10SM CLR 00/M04 A3030 RMK AO2 T00021037

Get Your Daily Forecast Email!

Thanks for signing up!

Be on the lookout for a verification email in your inbox.

You'll start receiving severe weather alerts in your inbox..

×

10-Day Weather Forecast

Almanac

Astronomy

Apr. 23, 2018 Rise Set
Actual Time
Civil Twilight
Nautical Twilight
Astronomical Twilight
Moon
Length of Visible Light
Length of Day
Tomorrow will be .
, % of the Moon is Illuminated

Today's Extremes

State Highs State Lows

Community

WunderPhotos

Category 6

Welcome to Category 6. This is the collective home for Weather Underground's featured writeups by Dr. Jeff Masters (right), Bob Henson (left), Chris Burt, and other regular contributors.

Nearby

Air Quality

  Air Quality AQ Index Pollutant
Not available.

Snow Depth

Station Depth Elevation

Earthquake Activity

City Distance Mag. Time & Date
Minimum magnitude displayed is 2.5.

Coastal Water Temperatures

Place Temperature

Stations

Nearby Weather Stations

Station Location Temp. Windchill Dew Point Humidity Wind Precip. Elev Updated Type
                   

Watches & Warnings

Flood Advisory
Issued: 8:32 PM EDT Apr. 22, 2018 – National Weather Service

The flood advisory continues for
the Muskegon river at Evart
* until Wednesday afternoon.
* At 07 PM Sunday the stage was 10.1 feet.
* Bankfull stage is 10.0 feet.
* Flood stage is 12.0 feet.
* Forecast, the river will rise to near 10.2 feet by after midnight
tonight.
* Impact, at 10.0 feet... river is bankfull.


Lat... Lon 4390 8537 4395 8527 4398 8515 4391 8515
      4387 8523 4384 8532